sensor_id;sensor_type;location;lat;lon;timestamp;temperature;humidity
2767;DHT22;1391;46.742;11.636;2023-01-31T00:01:27;0.10;45.20
2767;DHT22;1391;46.742;11.636;2023-01-31T00:03:57;0.30;42.40
2767;DHT22;1391;46.742;11.636;2023-01-31T00:06:26;0.40;40.80
2767;DHT22;1391;46.742;11.636;2023-01-31T00:08:56;-0.30;44.60
2767;DHT22;1391;46.742;11.636;2023-01-31T00:11:25;-0.20;43.00
2767;DHT22;1391;46.742;11.636;2023-01-31T00:13:56;0.10;43.10
2767;DHT22;1391;46.742;11.636;2023-01-31T00:16:24;0.10;42.90
2767;DHT22;1391;46.742;11.636;2023-01-31T00:18:51;0.40;44.90
2767;DHT22;1391;46.742;11.636;2023-01-31T00:21:21;0.00;44.60
2767;DHT22;1391;46.742;11.636;2023-01-31T00:23:50;0.10;44.30
2767;DHT22;1391;46.742;11.636;2023-01-31T00:26:20;0.10;43.20
2767;DHT22;1391;46.742;11.636;2023-01-31T00:28:51;0.00;44.20
2767;DHT22;1391;46.742;11.636;2023-01-31T00:31:21;-0.10;43.60
2767;DHT22;1391;46.742;11.636;2023-01-31T00:33:50;-0.40;45.10
2767;DHT22;1391;46.742;11.636;2023-01-31T00:36:20;-0.30;44.40
2767;DHT22;1391;46.742;11.636;2023-01-31T00:38:49;0.00;42.60
2767;DHT22;1391;46.742;11.636;2023-01-31T00:41:18;-0.20;46.30
2767;DHT22;1391;46.742;11.636;2023-01-31T00:43:45;-0.30;45.80
2767;DHT22;1391;46.742;11.636;2023-01-31T00:46:14;-0.90;46.80
2767;DHT22;1391;46.742;11.636;2023-01-31T00:48:41;-0.40;44.00
2767;DHT22;1391;46.742;11.636;2023-01-31T00:51:09;-0.40;44.40
2767;DHT22;1391;46.742;11.636;2023-01-31T00:53:36;-0.20;44.60
2767;DHT22;1391;46.742;11.636;2023-01-31T00:56:05;-0.10;41.60
2767;DHT22;1391;46.742;11.636;2023-01-31T00:58:34;0.30;39.70
2767;DHT22;1391;46.742;11.636;2023-01-31T01:01:08;0.80;39.40
2767;DHT22;1391;46.742;11.636;2023-01-31T01:03:39;0.90;38.40
2767;DHT22;1391;46.742;11.636;2023-01-31T01:06:08;1.30;36.90
2767;DHT22;1391;46.742;11.636;2023-01-31T01:08:38;1.50;35.00
2767;DHT22;1391;46.742;11.636;2023-01-31T01:11:07;1.10;35.60
2767;DHT22;1391;46.742;11.636;2023-01-31T01:13:35;0.80;36.90
2767;DHT22;1391;46.742;11.636;2023-01-31T01:16:04;0.80;35.90
2767;DHT22;1391;46.742;11.636;2023-01-31T01:18:32;0.90;37.40
2767;DHT22;1391;46.742;11.636;2023-01-31T01:21:06;1.00;37.80
2767;DHT22;1391;46.742;11.636;2023-01-31T01:23:34;0.80;38.70
2767;DHT22;1391;46.742;11.636;2023-01-31T01:26:01;0.40;39.30
2767;DHT22;1391;46.742;11.636;2023-01-31T01:28:32;0.40;38.80
2767;DHT22;1391;46.742;11.636;2023-01-31T01:31:04;0.50;39.40
2767;DHT22;1391;46.742;11.636;2023-01-31T01:33:32;0.50;38.20
2767;DHT22;1391;46.742;11.636;2023-01-31T01:36:00;0.80;37.90
2767;DHT22;1391;46.742;11.636;2023-01-31T01:38:29;0.80;37.90
2767;DHT22;1391;46.742;11.636;2023-01-31T01:40:56;0.80;39.10
2767;DHT22;1391;46.742;11.636;2023-01-31T01:43:38;0.20;40.50
2767;DHT22;1391;46.742;11.636;2023-01-31T01:46:09;0.20;40.80
2767;DHT22;1391;46.742;11.636;2023-01-31T01:48:38;-0.20;44.00
2767;DHT22;1391;46.742;11.636;2023-01-31T01:51:07;-0.40;44.50
2767;DHT22;1391;46.742;11.636;2023-01-31T01:53:39;-0.30;44.00
2767;DHT22;1391;46.742;11.636;2023-01-31T01:56:10;-0.10;42.30
2767;DHT22;1391;46.742;11.636;2023-01-31T01:58:45;-0.20;45.10
2767;DHT22;1391;46.742;11.636;2023-01-31T02:01:14;-0.50;43.20
2767;DHT22;1391;46.742;11.636;2023-01-31T02:03:42;-0.10;39.80
2767;DHT22;1391;46.742;11.636;2023-01-31T02:06:11;0.20;39.60
2767;DHT22;1391;46.742;11.636;2023-01-31T02:08:41;0.10;38.60
2767;DHT22;1391;46.742;11.636;2023-01-31T02:11:12;0.70;38.50
2767;DHT22;1391;46.742;11.636;2023-01-31T02:13:45;0.20;40.00
2767;DHT22;1391;46.742;11.636;2023-01-31T02:16:12;0.20;41.40
2767;DHT22;1391;46.742;11.636;2023-01-31T02:18:41;-0.10;41.20
2767;DHT22;1391;46.742;11.636;2023-01-31T02:21:54;0.00;43.00
2767;DHT22;1391;46.742;11.636;2023-01-31T02:25:19;-0.50;43.10
2767;DHT22;1391;46.742;11.636;2023-01-31T02:34:38;-0.90;44.70
2767;DHT22;1391;46.742;11.636;2023-01-31T02:37:18;-0.70;44.40
2767;DHT22;1391;46.742;11.636;2023-01-31T02:39:55;-1.40;49.30
2767;DHT22;1391;46.742;11.636;2023-01-31T02:42:36;-1.60;49.90
2767;DHT22;1391;46.742;11.636;2023-01-31T02:45:11;-1.30;48.90
2767;DHT22;1391;46.742;11.636;2023-01-31T02:47:58;-1.60;49.90
2767;DHT22;1391;46.742;11.636;2023-01-31T02:50:40;-1.00;46.80
2767;DHT22;1391;46.742;11.636;2023-01-31T02:53:15;-1.30;47.40
2767;DHT22;1391;46.742;11.636;2023-01-31T02:55:51;-1.10;46.60
2767;DHT22;1391;46.742;11.636;2023-01-31T02:58:39;-1.40;46.60
2767;DHT22;1391;46.742;11.636;2023-01-31T03:01:12;-1.90;48.00
2767;DHT22;1391;46.742;11.636;2023-01-31T03:03:42;-1.20;47.60
2767;DHT22;1391;46.742;11.636;2023-01-31T03:06:45;-2.20;48.70
2767;DHT22;1391;46.742;11.636;2023-01-31T03:09:32;-1.20;47.70
2767;DHT22;1391;46.742;11.636;2023-01-31T03:12:15;-1.30;46.90
2767;DHT22;1391;46.742;11.636;2023-01-31T03:14:52;-1.50;48.60
2767;DHT22;1391;46.742;11.636;2023-01-31T03:17:35;-1.60;48.20
2767;DHT22;1391;46.742;11.636;2023-01-31T03:20:15;-1.20;46.80
2767;DHT22;1391;46.742;11.636;2023-01-31T03:22:49;-1.20;46.80
2767;DHT22;1391;46.742;11.636;2023-01-31T03:25:20;-1.00;46.40
2767;DHT22;1391;46.742;11.636;2023-01-31T03:27:51;-1.00;45.90
2767;DHT22;1391;46.742;11.636;2023-01-31T03:30:25;-1.10;45.20
2767;DHT22;1391;46.742;11.636;2023-01-31T03:32:59;-0.90;45.20
2767;DHT22;1391;46.742;11.636;2023-01-31T03:35:30;-1.70;46.50
2767;DHT22;1391;46.742;11.636;2023-01-31T03:38:04;-1.80;47.10
2767;DHT22;1391;46.742;11.636;2023-01-31T03:40:36;-1.10;46.20
2767;DHT22;1391;46.742;11.636;2023-01-31T03:43:09;-1.30;46.30
2767;DHT22;1391;46.742;11.636;2023-01-31T03:45:44;-2.40;48.80
2767;DHT22;1391;46.742;11.636;2023-01-31T03:48:15;-1.80;48.60
2767;DHT22;1391;46.742;11.636;2023-01-31T03:50:48;-1.90;47.40
2767;DHT22;1391;46.742;11.636;2023-01-31T03:53:23;-1.50;48.00
2767;DHT22;1391;46.742;11.636;2023-01-31T03:55:54;-1.20;47.60
2767;DHT22;1391;46.742;11.636;2023-01-31T03:58:26;-2.10;50.20
2767;DHT22;1391;46.742;11.636;2023-01-31T04:00:55;-2.20;51.10
2767;DHT22;1391;46.742;11.636;2023-01-31T04:03:27;-1.90;50.50
2767;DHT22;1391;46.742;11.636;2023-01-31T04:05:57;-1.50;48.80
2767;DHT22;1391;46.742;11.636;2023-01-31T04:08:26;-1.50;48.60
2767;DHT22;1391;46.742;11.636;2023-01-31T04:10:54;-2.40;51.80
2767;DHT22;1391;46.742;11.636;2023-01-31T04:13:22;-2.10;51.90
2767;DHT22;1391;46.742;11.636;2023-01-31T04:15:49;-2.20;52.20
2767;DHT22;1391;46.742;11.636;2023-01-31T04:18:16;-2.40;52.00
2767;DHT22;1391;46.742;11.636;2023-01-31T04:20:43;-2.20;51.20
2767;DHT22;1391;46.742;11.636;2023-01-31T04:23:11;-2.40;52.80
2767;DHT22;1391;46.742;11.636;2023-01-31T04:25:39;-2.50;52.40
2767;DHT22;1391;46.742;11.636;2023-01-31T04:28:07;-2.10;52.00
2767;DHT22;1391;46.742;11.636;2023-01-31T04:30:34;-2.00;50.50
2767;DHT22;1391;46.742;11.636;2023-01-31T04:33:01;-1.50;49.80
2767;DHT22;1391;46.742;11.636;2023-01-31T04:35:28;-2.10;50.00
2767;DHT22;1391;46.742;11.636;2023-01-31T04:37:56;-1.90;51.50
2767;DHT22;1391;46.742;11.636;2023-01-31T04:40:23;-1.70;50.00
2767;DHT22;1391;46.742;11.636;2023-01-31T04:42:52;-2.70;52.10
2767;DHT22;1391;46.742;11.636;2023-01-31T04:45:19;-2.50;51.70
2767;DHT22;1391;46.742;11.636;2023-01-31T04:47:46;-2.40;51.50
2767;DHT22;1391;46.742;11.636;2023-01-31T04:50:14;-1.90;51.00
2767;DHT22;1391;46.742;11.636;2023-01-31T04:52:41;-2.20;50.50
2767;DHT22;1391;46.742;11.636;2023-01-31T04:55:09;-2.90;53.00
2767;DHT22;1391;46.742;11.636;2023-01-31T04:57:36;-2.70;54.10
2767;DHT22;1391;46.742;11.636;2023-01-31T05:00:07;-2.40;52.40
2767;DHT22;1391;46.742;11.636;2023-01-31T05:02:35;-2.20;51.30
2767;DHT22;1391;46.742;11.636;2023-01-31T05:05:02;-2.20;51.40
2767;DHT22;1391;46.742;11.636;2023-01-31T05:07:30;-2.50;52.20
2767;DHT22;1391;46.742;11.636;2023-01-31T05:09:57;-2.70;52.40
2767;DHT22;1391;46.742;11.636;2023-01-31T05:12:24;-2.90;53.90
2767;DHT22;1391;46.742;11.636;2023-01-31T05:14:53;-2.60;53.40
2767;DHT22;1391;46.742;11.636;2023-01-31T05:17:21;-2.70;52.00
2767;DHT22;1391;46.742;11.636;2023-01-31T05:19:54;-3.00;55.60
2767;DHT22;1391;46.742;11.636;2023-01-31T05:22:21;-2.70;54.20
2767;DHT22;1391;46.742;11.636;2023-01-31T05:24:49;-2.70;54.10
2767;DHT22;1391;46.742;11.636;2023-01-31T05:27:17;-2.50;54.40
2767;DHT22;1391;46.742;11.636;2023-01-31T05:29:46;-1.80;52.50
2767;DHT22;1391;46.742;11.636;2023-01-31T05:32:13;-2.60;51.90
2767;DHT22;1391;46.742;11.636;2023-01-31T05:34:43;-2.90;54.00
2767;DHT22;1391;46.742;11.636;2023-01-31T05:37:10;-3.00;53.70
2767;DHT22;1391;46.742;11.636;2023-01-31T05:39:38;-2.80;53.30
2767;DHT22;1391;46.742;11.636;2023-01-31T05:42:05;-2.70;52.50
2767;DHT22;1391;46.742;11.636;2023-01-31T05:44:32;-2.90;52.30
2767;DHT22;1391;46.742;11.636;2023-01-31T05:46:59;-2.70;52.20
2767;DHT22;1391;46.742;11.636;2023-01-31T05:49:27;-2.70;52.20
2767;DHT22;1391;46.742;11.636;2023-01-31T05:51:59;-2.50;51.70
2767;DHT22;1391;46.742;11.636;2023-01-31T05:54:26;-2.40;52.40
2767;DHT22;1391;46.742;11.636;2023-01-31T05:56:54;-2.50;51.80
2767;DHT22;1391;46.742;11.636;2023-01-31T05:59:21;-2.40;51.70
2767;DHT22;1391;46.742;11.636;2023-01-31T06:01:48;-3.00;54.20
2767;DHT22;1391;46.742;11.636;2023-01-31T06:04:15;-2.60;53.60
2767;DHT22;1391;46.742;11.636;2023-01-31T06:06:43;-2.60;52.50
2767;DHT22;1391;46.742;11.636;2023-01-31T06:09:11;-2.80;54.00
2767;DHT22;1391;46.742;11.636;2023-01-31T06:11:39;-2.90;55.20
2767;DHT22;1391;46.742;11.636;2023-01-31T06:14:07;-2.90;53.90
2767;DHT22;1391;46.742;11.636;2023-01-31T06:16:34;-3.00;54.20
2767;DHT22;1391;46.742;11.636;2023-01-31T06:19:02;-3.40;54.50
2767;DHT22;1391;46.742;11.636;2023-01-31T06:21:29;-3.20;54.90
2767;DHT22;1391;46.742;11.636;2023-01-31T06:23:56;-2.80;54.00
2767;DHT22;1391;46.742;11.636;2023-01-31T06:26:25;-3.80;56.00
2767;DHT22;1391;46.742;11.636;2023-01-31T06:28:52;-3.30;57.30
2767;DHT22;1391;46.742;11.636;2023-01-31T06:31:20;-2.90;55.80
2767;DHT22;1391;46.742;11.636;2023-01-31T06:33:47;-2.50;54.70
2767;DHT22;1391;46.742;11.636;2023-01-31T06:36:15;-2.80;53.50
2767;DHT22;1391;46.742;11.636;2023-01-31T06:38:42;-2.40;54.10
2767;DHT22;1391;46.742;11.636;2023-01-31T06:41:09;-3.20;54.30
2767;DHT22;1391;46.742;11.636;2023-01-31T06:43:38;-3.30;55.40
2767;DHT22;1391;46.742;11.636;2023-01-31T06:46:06;-2.90;56.50
2767;DHT22;1391;46.742;11.636;2023-01-31T06:48:33;-3.40;57.70
2767;DHT22;1391;46.742;11.636;2023-01-31T06:51:00;-2.80;57.00
2767;DHT22;1391;46.742;11.636;2023-01-31T06:53:28;-3.00;55.80
2767;DHT22;1391;46.742;11.636;2023-01-31T06:55:55;-3.20;56.10
2767;DHT22;1391;46.742;11.636;2023-01-31T06:58:22;-3.50;57.20
2767;DHT22;1391;46.742;11.636;2023-01-31T07:00:51;-3.20;57.60
2767;DHT22;1391;46.742;11.636;2023-01-31T07:03:18;-3.20;57.00
2767;DHT22;1391;46.742;11.636;2023-01-31T07:05:45;-3.00;57.40
2767;DHT22;1391;46.742;11.636;2023-01-31T07:08:13;-2.90;58.00
2767;DHT22;1391;46.742;11.636;2023-01-31T07:10:40;-3.00;57.40
2767;DHT22;1391;46.742;11.636;2023-01-31T07:13:07;-2.70;57.60
2767;DHT22;1391;46.742;11.636;2023-01-31T07:15:35;-3.00;58.10
2767;DHT22;1391;46.742;11.636;2023-01-31T07:18:03;-3.00;57.20
2767;DHT22;1391;46.742;11.636;2023-01-31T07:20:31;-3.00;57.00
2767;DHT22;1391;46.742;11.636;2023-01-31T07:22:59;-3.00;57.40
2767;DHT22;1391;46.742;11.636;2023-01-31T07:25:26;-2.70;57.10
2767;DHT22;1391;46.742;11.636;2023-01-31T07:27:56;-3.20;58.20
2767;DHT22;1391;46.742;11.636;2023-01-31T07:30:23;-2.60;57.80
2767;DHT22;1391;46.742;11.636;2023-01-31T07:32:51;-2.70;56.50
2767;DHT22;1391;46.742;11.636;2023-01-31T07:35:20;-2.80;56.90
2767;DHT22;1391;46.742;11.636;2023-01-31T07:37:47;-2.50;56.60
2767;DHT22;1391;46.742;11.636;2023-01-31T07:40:17;-3.10;58.20
2767;DHT22;1391;46.742;11.636;2023-01-31T07:42:45;-3.20;59.50
2767;DHT22;1391;46.742;11.636;2023-01-31T07:45:14;-2.90;59.70
2767;DHT22;1391;46.742;11.636;2023-01-31T07:47:41;-3.00;59.70
2767;DHT22;1391;46.742;11.636;2023-01-31T07:50:10;-3.10;59.00
2767;DHT22;1391;46.742;11.636;2023-01-31T07:52:39;-3.10;60.20
2767;DHT22;1391;46.742;11.636;2023-01-31T07:55:07;-2.70;57.30
2767;DHT22;1391;46.742;11.636;2023-01-31T07:57:34;-2.70;58.80
2767;DHT22;1391;46.742;11.636;2023-01-31T08:00:02;-2.90;59.30
2767;DHT22;1391;46.742;11.636;2023-01-31T08:02:50;-2.30;59.80
2767;DHT22;1391;46.742;11.636;2023-01-31T08:05:35;-1.80;60.50
2767;DHT22;1391;46.742;11.636;2023-01-31T08:08:03;-1.30;58.50
2767;DHT22;1391;46.742;11.636;2023-01-31T08:10:36;-1.10;54.00
2767;DHT22;1391;46.742;11.636;2023-01-31T08:13:03;-0.40;52.50
2767;DHT22;1391;46.742;11.636;2023-01-31T08:15:31;-0.10;49.20
2767;DHT22;1391;46.742;11.636;2023-01-31T08:17:59;0.50;51.20
2767;DHT22;1391;46.742;11.636;2023-01-31T08:20:26;0.80;49.20
2767;DHT22;1391;46.742;11.636;2023-01-31T08:22:55;1.10;41.70
2767;DHT22;1391;46.742;11.636;2023-01-31T08:25:26;1.10;45.20
2767;DHT22;1391;46.742;11.636;2023-01-31T08:27:56;1.40;42.40
2767;DHT22;1391;46.742;11.636;2023-01-31T08:30:23;1.80;41.10
2767;DHT22;1391;46.742;11.636;2023-01-31T08:32:50;1.70;43.60
2767;DHT22;1391;46.742;11.636;2023-01-31T08:35:17;2.20;39.40
2767;DHT22;1391;46.742;11.636;2023-01-31T08:37:45;1.60;40.20
2767;DHT22;1391;46.742;11.636;2023-01-31T08:40:12;1.90;41.00
2767;DHT22;1391;46.742;11.636;2023-01-31T08:42:41;2.10;39.10
2767;DHT22;1391;46.742;11.636;2023-01-31T08:45:09;2.60;37.90
2767;DHT22;1391;46.742;11.636;2023-01-31T08:47:36;2.40;37.80
2767;DHT22;1391;46.742;11.636;2023-01-31T08:50:05;2.80;34.90
2767;DHT22;1391;46.742;11.636;2023-01-31T08:52:33;3.20;31.60
2767;DHT22;1391;46.742;11.636;2023-01-31T08:55:01;2.80;31.80
2767;DHT22;1391;46.742;11.636;2023-01-31T08:57:30;3.40;32.50
2767;DHT22;1391;46.742;11.636;2023-01-31T08:59:58;2.40;33.90
2767;DHT22;1391;46.742;11.636;2023-01-31T09:02:25;2.70;35.90
2767;DHT22;1391;46.742;11.636;2023-01-31T09:04:53;2.70;33.90
2767;DHT22;1391;46.742;11.636;2023-01-31T09:07:20;3.00;35.10
2767;DHT22;1391;46.742;11.636;2023-01-31T09:09:47;3.40;35.30
2767;DHT22;1391;46.742;11.636;2023-01-31T09:12:14;3.70;34.80
2767;DHT22;1391;46.742;11.636;2023-01-31T09:14:42;3.90;31.50
2767;DHT22;1391;46.742;11.636;2023-01-31T09:17:10;3.70;32.40
2767;DHT22;1391;46.742;11.636;2023-01-31T09:19:38;4.40;31.50
2767;DHT22;1391;46.742;11.636;2023-01-31T09:22:05;4.80;30.20
2767;DHT22;1391;46.742;11.636;2023-01-31T09:24:32;5.60;30.20
2767;DHT22;1391;46.742;11.636;2023-01-31T09:27:00;6.40;29.30
2767;DHT22;1391;46.742;11.636;2023-01-31T09:29:27;6.50;25.00
2767;DHT22;1391;46.742;11.636;2023-01-31T09:31:54;5.80;28.20
2767;DHT22;1391;46.742;11.636;2023-01-31T09:34:23;5.90;27.70
2767;DHT22;1391;46.742;11.636;2023-01-31T09:36:50;5.30;28.00
2767;DHT22;1391;46.742;11.636;2023-01-31T09:39:18;5.50;28.60
2767;DHT22;1391;46.742;11.636;2023-01-31T09:41:48;5.30;26.60
2767;DHT22;1391;46.742;11.636;2023-01-31T09:44:20;5.00;28.10
2767;DHT22;1391;46.742;11.636;2023-01-31T09:46:54;5.20;27.50
2767;DHT22;1391;46.742;11.636;2023-01-31T09:49:29;5.70;27.30
2767;DHT22;1391;46.742;11.636;2023-01-31T09:51:59;6.50;27.00
2767;DHT22;1391;46.742;11.636;2023-01-31T09:54:33;6.10;26.30
2767;DHT22;1391;46.742;11.636;2023-01-31T09:57:12;6.40;24.80
2767;DHT22;1391;46.742;11.636;2023-01-31T09:59:48;6.80;24.30
2767;DHT22;1391;46.742;11.636;2023-01-31T10:02:34;7.00;22.60
2767;DHT22;1391;46.742;11.636;2023-01-31T10:05:21;7.40;20.90
2767;DHT22;1391;46.742;11.636;2023-01-31T10:07:58;6.80;23.50
2767;DHT22;1391;46.742;11.636;2023-01-31T10:10:34;6.80;23.20
2767;DHT22;1391;46.742;11.636;2023-01-31T10:13:08;6.30;23.40
2767;DHT22;1391;46.742;11.636;2023-01-31T10:15:40;6.90;23.50
2767;DHT22;1391;46.742;11.636;2023-01-31T10:18:11;6.80;23.90
2767;DHT22;1391;46.742;11.636;2023-01-31T10:20:48;6.20;24.40
2767;DHT22;1391;46.742;11.636;2023-01-31T10:23:22;6.50;24.50
2767;DHT22;1391;46.742;11.636;2023-01-31T10:25:58;6.50;23.50
2767;DHT22;1391;46.742;11.636;2023-01-31T10:28:33;6.90;23.50
2767;DHT22;1391;46.742;11.636;2023-01-31T10:31:06;7.00;21.50
2767;DHT22;1391;46.742;11.636;2023-01-31T10:33:43;7.00;21.10
2767;DHT22;1391;46.742;11.636;2023-01-31T10:36:21;7.00;20.40
2767;DHT22;1391;46.742;11.636;2023-01-31T10:38:59;7.30;16.70
2767;DHT22;1391;46.742;11.636;2023-01-31T10:41:41;7.50;16.70
2767;DHT22;1391;46.742;11.636;2023-01-31T10:44:19;7.40;17.80
2767;DHT22;1391;46.742;11.636;2023-01-31T10:46:51;8.10;17.60
2767;DHT22;1391;46.742;11.636;2023-01-31T10:49:20;8.10;16.30
2767;DHT22;1391;46.742;11.636;2023-01-31T10:52:04;8.20;15.50
2767;DHT22;1391;46.742;11.636;2023-01-31T10:54:47;8.70;15.20
2767;DHT22;1391;46.742;11.636;2023-01-31T10:57:19;9.10;14.60
2767;DHT22;1391;46.742;11.636;2023-01-31T10:59:48;8.70;14.10
2767;DHT22;1391;46.742;11.636;2023-01-31T11:02:18;8.90;13.80
2767;DHT22;1391;46.742;11.636;2023-01-31T11:04:48;9.40;17.20
2767;DHT22;1391;46.742;11.636;2023-01-31T11:07:19;9.90;11.80
2767;DHT22;1391;46.742;11.636;2023-01-31T11:09:49;9.50;10.20
2767;DHT22;1391;46.742;11.636;2023-01-31T11:12:19;9.50;11.20
2767;DHT22;1391;46.742;11.636;2023-01-31T11:15:04;9.50;11.20
2767;DHT22;1391;46.742;11.636;2023-01-31T11:17:36;9.40;11.80
2767;DHT22;1391;46.742;11.636;2023-01-31T11:20:04;9.50;8.70
2767;DHT22;1391;46.742;11.636;2023-01-31T11:22:36;9.40;8.20
2767;DHT22;1391;46.742;11.636;2023-01-31T11:25:05;9.40;10.20
2767;DHT22;1391;46.742;11.636;2023-01-31T11:27:38;9.80;9.80
2767;DHT22;1391;46.742;11.636;2023-01-31T11:30:19;9.90;8.30
2767;DHT22;1391;46.742;11.636;2023-01-31T11:32:48;10.30;7.70
2767;DHT22;1391;46.742;11.636;2023-01-31T11:35:25;10.30;6.60
2767;DHT22;1391;46.742;11.636;2023-01-31T11:37:56;10.00;7.30
2767;DHT22;1391;46.742;11.636;2023-01-31T11:40:30;10.00;6.70
2767;DHT22;1391;46.742;11.636;2023-01-31T11:42:59;10.10;6.90
2767;DHT22;1391;46.742;11.636;2023-01-31T11:45:29;10.30;10.00
2767;DHT22;1391;46.742;11.636;2023-01-31T11:48:04;10.70;5.50
2767;DHT22;1391;46.742;11.636;2023-01-31T11:50:35;10.30;3.90
2767;DHT22;1391;46.742;11.636;2023-01-31T11:53:15;10.60;5.90
2767;DHT22;1391;46.742;11.636;2023-01-31T11:55:45;10.20;7.20
2767;DHT22;1391;46.742;11.636;2023-01-31T11:58:18;10.70;5.60
2767;DHT22;1391;46.742;11.636;2023-01-31T12:00:55;10.10;6.00
2767;DHT22;1391;46.742;11.636;2023-01-31T12:03:25;9.90;7.20
2767;DHT22;1391;46.742;11.636;2023-01-31T12:05:59;10.40;5.40
2767;DHT22;1391;46.742;11.636;2023-01-31T12:08:31;10.30;7.50
2767;DHT22;1391;46.742;11.636;2023-01-31T12:11:03;10.60;4.50
2767;DHT22;1391;46.742;11.636;2023-01-31T12:13:44;10.80;4.60
2767;DHT22;1391;46.742;11.636;2023-01-31T12:16:13;10.90;1.20
2767;DHT22;1391;46.742;11.636;2023-01-31T12:18:53;10.70;1.00
2767;DHT22;1391;46.742;11.636;2023-01-31T12:21:38;10.60;2.30
2767;DHT22;1391;46.742;11.636;2023-01-31T12:24:23;10.50;4.10
2767;DHT22;1391;46.742;11.636;2023-01-31T12:26:59;10.20;3.50
2767;DHT22;1391;46.742;11.636;2023-01-31T12:29:52;10.10;4.00
2767;DHT22;1391;46.742;11.636;2023-01-31T12:32:35;10.20;5.30
2767;DHT22;1391;46.742;11.636;2023-01-31T12:35:29;10.00;4.90
2767;DHT22;1391;46.742;11.636;2023-01-31T12:38:09;9.70;6.10
2767;DHT22;1391;46.742;11.636;2023-01-31T12:40:53;9.20;6.20
2767;DHT22;1391;46.742;11.636;2023-01-31T12:43:41;8.90;6.60
2767;DHT22;1391;46.742;11.636;2023-01-31T12:46:18;8.60;8.10
2767;DHT22;1391;46.742;11.636;2023-01-31T12:52:01;8.50;7.80
2767;DHT22;1391;46.742;11.636;2023-01-31T12:54:43;8.20;8.10
2767;DHT22;1391;46.742;11.636;2023-01-31T12:57:29;8.60;8.30
2767;DHT22;1391;46.742;11.636;2023-01-31T13:00:07;8.20;8.60
2767;DHT22;1391;46.742;11.636;2023-01-31T13:02:49;8.50;8.60
2767;DHT22;1391;46.742;11.636;2023-01-31T13:05:26;8.80;7.80
2767;DHT22;1391;46.742;11.636;2023-01-31T13:07:59;8.60;6.50
2767;DHT22;1391;46.742;11.636;2023-01-31T13:10:34;8.20;6.80
2767;DHT22;1391;46.742;11.636;2023-01-31T13:13:08;8.10;8.50
2767;DHT22;1391;46.742;11.636;2023-01-31T13:15:42;8.20;10.00
2767;DHT22;1391;46.742;11.636;2023-01-31T13:18:12;8.10;8.00
2767;DHT22;1391;46.742;11.636;2023-01-31T13:20:42;7.80;9.00
2767;DHT22;1391;46.742;11.636;2023-01-31T13:23:16;7.80;9.50
2767;DHT22;1391;46.742;11.636;2023-01-31T13:25:50;7.70;9.30
2767;DHT22;1391;46.742;11.636;2023-01-31T13:28:23;7.70;8.90
2767;DHT22;1391;46.742;11.636;2023-01-31T13:30:54;7.50;9.60
2767;DHT22;1391;46.742;11.636;2023-01-31T13:33:31;7.30;9.90
2767;DHT22;1391;46.742;11.636;2023-01-31T13:36:26;7.30;10.40
2767;DHT22;1391;46.742;11.636;2023-01-31T13:38:55;7.00;10.80
2767;DHT22;1391;46.742;11.636;2023-01-31T13:41:27;7.30;10.70
2767;DHT22;1391;46.742;11.636;2023-01-31T13:43:59;7.20;11.70
2767;DHT22;1391;46.742;11.636;2023-01-31T13:46:32;7.20;8.90
2767;DHT22;1391;46.742;11.636;2023-01-31T13:49:06;7.30;7.50
2767;DHT22;1391;46.742;11.636;2023-01-31T13:51:39;7.30;8.30
2767;DHT22;1391;46.742;11.636;2023-01-31T13:54:15;7.30;8.40
2767;DHT22;1391;46.742;11.636;2023-01-31T13:56:48;7.30;8.10
2767;DHT22;1391;46.742;11.636;2023-01-31T13:59:20;7.30;9.00
2767;DHT22;1391;46.742;11.636;2023-01-31T14:01:49;7.40;11.00
2767;DHT22;1391;46.742;11.636;2023-01-31T14:04:29;7.20;10.20
2767;DHT22;1391;46.742;11.636;2023-01-31T14:07:21;7.60;8.50
2767;DHT22;1391;46.742;11.636;2023-01-31T14:10:24;7.60;11.40
2767;DHT22;1391;46.742;11.636;2023-01-31T14:13:26;7.70;12.70
2767;DHT22;1391;46.742;11.636;2023-01-31T14:16:36;7.70;14.00
2767;DHT22;1391;46.742;11.636;2023-01-31T14:19:30;7.80;14.80
2767;DHT22;1391;46.742;11.636;2023-01-31T14:22:15;7.90;11.00
2767;DHT22;1391;46.742;11.636;2023-01-31T14:25:05;7.60;10.80
2767;DHT22;1391;46.742;11.636;2023-01-31T14:27:41;7.50;10.70
2767;DHT22;1391;46.742;11.636;2023-01-31T14:30:26;7.70;11.30
2767;DHT22;1391;46.742;11.636;2023-01-31T14:33:14;7.70;12.30
2767;DHT22;1391;46.742;11.636;2023-01-31T14:39:39;7.70;13.20
2767;DHT22;1391;46.742;11.636;2023-01-31T14:42:48;7.60;13.90
2767;DHT22;1391;46.742;11.636;2023-01-31T14:45:49;7.70;14.90
2767;DHT22;1391;46.742;11.636;2023-01-31T14:52:15;7.50;12.80
2767;DHT22;1391;46.742;11.636;2023-01-31T14:55:00;7.40;14.30
2767;DHT22;1391;46.742;11.636;2023-01-31T14:57:39;7.10;13.40
2767;DHT22;1391;46.742;11.636;2023-01-31T15:00:19;7.30;14.90
2767;DHT22;1391;46.742;11.636;2023-01-31T15:02:51;7.30;14.80
2767;DHT22;1391;46.742;11.636;2023-01-31T15:05:42;7.30;13.80
2767;DHT22;1391;46.742;11.636;2023-01-31T15:08:31;7.30;13.50
2767;DHT22;1391;46.742;11.636;2023-01-31T15:11:03;7.20;14.40
2767;DHT22;1391;46.742;11.636;2023-01-31T15:13:37;6.90;14.20
2767;DHT22;1391;46.742;11.636;2023-01-31T15:16:31;6.80;14.30
2767;DHT22;1391;46.742;11.636;2023-01-31T15:19:05;6.80;14.90
2767;DHT22;1391;46.742;11.636;2023-01-31T15:21:38;6.90;14.10
2767;DHT22;1391;46.742;11.636;2023-01-31T15:24:16;6.10;13.30
2767;DHT22;1391;46.742;11.636;2023-01-31T15:26:45;6.10;16.10
2767;DHT22;1391;46.742;11.636;2023-01-31T15:29:18;5.70;16.90
2767;DHT22;1391;46.742;11.636;2023-01-31T15:31:49;5.80;12.60
2767;DHT22;1391;46.742;11.636;2023-01-31T15:34:22;6.40;13.20
2767;DHT22;1391;46.742;11.636;2023-01-31T15:37:00;6.20;10.40
2767;DHT22;1391;46.742;11.636;2023-01-31T15:39:35;6.50;10.40
2767;DHT22;1391;46.742;11.636;2023-01-31T15:42:21;6.20;11.20
2767;DHT22;1391;46.742;11.636;2023-01-31T15:44:50;6.50;12.90
2767;DHT22;1391;46.742;11.636;2023-01-31T15:47:19;6.10;13.70
2767;DHT22;1391;46.742;11.636;2023-01-31T15:49:47;6.10;12.30
2767;DHT22;1391;46.742;11.636;2023-01-31T15:52:18;6.30;13.20
2767;DHT22;1391;46.742;11.636;2023-01-31T15:54:51;6.10;12.90
2767;DHT22;1391;46.742;11.636;2023-01-31T15:57:22;6.00;13.10
2767;DHT22;1391;46.742;11.636;2023-01-31T15:59:51;6.40;12.10
2767;DHT22;1391;46.742;11.636;2023-01-31T16:02:24;6.10;13.30
2767;DHT22;1391;46.742;11.636;2023-01-31T16:04:53;6.10;13.10
2767;DHT22;1391;46.742;11.636;2023-01-31T16:07:25;6.30;13.90
2767;DHT22;1391;46.742;11.636;2023-01-31T16:09:57;6.00;13.70
2767;DHT22;1391;46.742;11.636;2023-01-31T16:12:27;6.10;14.20
2767;DHT22;1391;46.742;11.636;2023-01-31T16:14:57;6.00;14.60
2767;DHT22;1391;46.742;11.636;2023-01-31T16:17:29;5.80;16.90
2767;DHT22;1391;46.742;11.636;2023-01-31T16:19:57;6.00;16.50
2767;DHT22;1391;46.742;11.636;2023-01-31T16:22:27;5.90;16.10
2767;DHT22;1391;46.742;11.636;2023-01-31T16:24:57;5.80;16.60
2767;DHT22;1391;46.742;11.636;2023-01-31T16:27:27;5.60;15.70
2767;DHT22;1391;46.742;11.636;2023-01-31T16:29:56;5.80;16.20
2767;DHT22;1391;46.742;11.636;2023-01-31T16:32:26;5.60;16.10
2767;DHT22;1391;46.742;11.636;2023-01-31T16:34:56;5.40;16.90
2767;DHT22;1391;46.742;11.636;2023-01-31T16:37:33;5.30;18.80
2767;DHT22;1391;46.742;11.636;2023-01-31T16:40:05;5.00;19.10
2767;DHT22;1391;46.742;11.636;2023-01-31T16:42:34;5.00;19.20
2767;DHT22;1391;46.742;11.636;2023-01-31T16:45:25;4.80;18.40
2767;DHT22;1391;46.742;11.636;2023-01-31T16:47:54;4.90;18.20
2767;DHT22;1391;46.742;11.636;2023-01-31T16:50:30;5.00;18.20